sensor_id;sensor_type;location;lat;lon;timestamp;P1;durP1;ratioP1;P2;durP2;ratioP2
3491;SDS011;1760;52.480;13.422;2022-09-09T00:01:08;6.57;;;4.80;;
3491;SDS011;1760;52.480;13.422;2022-09-09T00:03:43;7.83;;;5.87;;
3491;SDS011;1760;52.480;13.422;2022-09-09T00:06:20;6.20;;;5.10;;
3491;SDS011;1760;52.480;13.422;2022-09-09T00:08:52;10.30;;;7.77;;
3491;SDS011;1760;52.480;13.422;2022-09-09T00:11:26;7.10;;;5.10;;
3491;SDS011;1760;52.480;13.422;2022-09-09T00:14:03;5.33;;;4.60;;
3491;SDS011;1760;52.480;13.422;2022-09-09T00:16:39;8.03;;;5.80;;
3491;SDS011;1760;52.480;13.422;2022-09-09T00:19:12;8.40;;;6.50;;
3491;SDS011;1760;52.480;13.422;2022-09-09T00:21:58;5.53;;;4.93;;
3491;SDS011;1760;52.480;13.422;2022-09-09T00:24:32;7.40;;;5.47;;
3491;SDS011;1760;52.480;13.422;2022-09-09T00:27:06;7.23;;;6.53;;
3491;SDS011;1760;52.480;13.422;2022-09-09T00:29:42;8.83;;;6.30;;
3491;SDS011;1760;52.480;13.422;2022-09-09T00:32:12;12.07;;;6.80;;
3491;SDS011;1760;52.480;13.422;2022-09-09T00:34:44;6.10;;;4.93;;
3491;SDS011;1760;52.480;13.422;2022-09-09T00:37:14;7.10;;;5.40;;
3491;SDS011;1760;52.480;13.422;2022-09-09T00:39:45;6.13;;;4.77;;
3491;SDS011;1760;52.480;13.422;2022-09-09T00:42:14;7.60;;;5.50;;
3491;SDS011;1760;52.480;13.422;2022-09-09T00:44:52;7.10;;;5.60;;
3491;SDS011;1760;52.480;13.422;2022-09-09T00:47:38;10.33;;;6.30;;
3491;SDS011;1760;52.480;13.422;2022-09-09T00:50:13;6.37;;;4.73;;
3491;SDS011;1760;52.480;13.422;2022-09-09T00:52:54;5.40;;;4.90;;
3491;SDS011;1760;52.480;13.422;2022-09-09T00:55:40;7.90;;;5.30;;
3491;SDS011;1760;52.480;13.422;2022-09-09T00:58:14;8.47;;;5.07;;
3491;SDS011;1760;52.480;13.422;2022-09-09T01:00:43;6.77;;;5.00;;
3491;SDS011;1760;52.480;13.422;2022-09-09T01:03:21;5.33;;;4.80;;
3491;SDS011;1760;52.480;13.422;2022-09-09T01:06:11;7.80;;;5.47;;
3491;SDS011;1760;52.480;13.422;2022-09-09T01:08:45;7.43;;;5.27;;
3491;SDS011;1760;52.480;13.422;2022-09-09T01:11:28;7.10;;;5.43;;
3491;SDS011;1760;52.480;13.422;2022-09-09T01:14:03;5.20;;;4.40;;
3491;SDS011;1760;52.480;13.422;2022-09-09T01:16:41;7.60;;;5.00;;
3491;SDS011;1760;52.480;13.422;2022-09-09T01:19:09;5.73;;;4.40;;
3491;SDS011;1760;52.480;13.422;2022-09-09T01:21:46;8.20;;;5.40;;
3491;SDS011;1760;52.480;13.422;2022-09-09T01:24:19;6.23;;;4.60;;
3491;SDS011;1760;52.480;13.422;2022-09-09T01:27:07;6.30;;;5.10;;
3491;SDS011;1760;52.480;13.422;2022-09-09T01:29:37;6.63;;;4.97;;
3491;SDS011;1760;52.480;13.422;2022-09-09T01:35:05;6.27;;;4.20;;
3491;SDS011;1760;52.480;13.422;2022-09-09T01:37:36;5.00;;;3.83;;
3491;SDS011;1760;52.480;13.422;2022-09-09T01:40:02;6.43;;;4.90;;
3491;SDS011;1760;52.480;13.422;2022-09-09T01:42:31;6.43;;;4.40;;
3491;SDS011;1760;52.480;13.422;2022-09-09T01:44:58;6.27;;;5.10;;
3491;SDS011;1760;52.480;13.422;2022-09-09T01:47:25;5.67;;;4.10;;
3491;SDS011;1760;52.480;13.422;2022-09-09T01:49:53;6.03;;;4.30;;
3491;SDS011;1760;52.480;13.422;2022-09-09T01:52:20;5.67;;;4.53;;
3491;SDS011;1760;52.480;13.422;2022-09-09T01:54:47;9.03;;;5.20;;
3491;SDS011;1760;52.480;13.422;2022-09-09T01:57:27;8.80;;;4.43;;
3491;SDS011;1760;52.480;13.422;2022-09-09T02:00:03;6.70;;;4.47;;
3491;SDS011;1760;52.480;13.422;2022-09-09T02:02:34;5.57;;;4.43;;
3491;SDS011;1760;52.480;13.422;2022-09-09T02:05:08;6.60;;;4.60;;
3491;SDS011;1760;52.480;13.422;2022-09-09T02:07:55;5.27;;;4.37;;
3491;SDS011;1760;52.480;13.422;2022-09-09T02:10:28;6.60;;;5.17;;
3491;SDS011;1760;52.480;13.422;2022-09-09T02:13:00;7.40;;;5.00;;
3491;SDS011;1760;52.480;13.422;2022-09-09T02:15:32;7.30;;;4.57;;
3491;SDS011;1760;52.480;13.422;2022-09-09T02:18:02;8.97;;;5.23;;
3491;SDS011;1760;52.480;13.422;2022-09-09T02:20:34;5.83;;;4.90;;
3491;SDS011;1760;52.480;13.422;2022-09-09T02:23:02;5.10;;;4.40;;
3491;SDS011;1760;52.480;13.422;2022-09-09T02:25:32;5.47;;;4.50;;
3491;SDS011;1760;52.480;13.422;2022-09-09T02:28:01;5.27;;;4.70;;
3491;SDS011;1760;52.480;13.422;2022-09-09T02:30:43;7.47;;;4.70;;
3491;SDS011;1760;52.480;13.422;2022-09-09T02:33:12;5.33;;;4.80;;
3491;SDS011;1760;52.480;13.422;2022-09-09T02:35:40;5.67;;;5.07;;
3491;SDS011;1760;52.480;13.422;2022-09-09T02:38:10;6.33;;;4.97;;
3491;SDS011;1760;52.480;13.422;2022-09-09T02:40:40;5.70;;;3.70;;
3491;SDS011;1760;52.480;13.422;2022-09-09T02:43:06;5.50;;;3.93;;
3491;SDS011;1760;52.480;13.422;2022-09-09T02:45:35;6.03;;;4.20;;
3491;SDS011;1760;52.480;13.422;2022-09-09T02:48:11;7.43;;;5.03;;
3491;SDS011;1760;52.480;13.422;2022-09-09T02:50:46;5.30;;;3.90;;
3491;SDS011;1760;52.480;13.422;2022-09-09T02:53:21;5.27;;;4.10;;
3491;SDS011;1760;52.480;13.422;2022-09-09T02:55:51;6.00;;;5.17;;
3491;SDS011;1760;52.480;13.422;2022-09-09T02:58:24;6.80;;;4.03;;
3491;SDS011;1760;52.480;13.422;2022-09-09T03:00:51;10.00;;;5.40;;
3491;SDS011;1760;52.480;13.422;2022-09-09T03:03:20;5.43;;;4.80;;
3491;SDS011;1760;52.480;13.422;2022-09-09T03:05:47;5.30;;;4.53;;
3491;SDS011;1760;52.480;13.422;2022-09-09T03:08:14;5.80;;;4.50;;
3491;SDS011;1760;52.480;13.422;2022-09-09T03:10:42;5.73;;;4.80;;
3491;SDS011;1760;52.480;13.422;2022-09-09T03:13:09;5.43;;;4.30;;
3491;SDS011;1760;52.480;13.422;2022-09-09T03:15:36;5.70;;;4.40;;
3491;SDS011;1760;52.480;13.422;2022-09-09T03:18:03;6.03;;;4.20;;
3491;SDS011;1760;52.480;13.422;2022-09-09T03:20:31;6.73;;;5.00;;
3491;SDS011;1760;52.480;13.422;2022-09-09T03:22:59;5.63;;;4.47;;
3491;SDS011;1760;52.480;13.422;2022-09-09T03:25:26;5.57;;;3.83;;
3491;SDS011;1760;52.480;13.422;2022-09-09T03:27:53;12.33;;;3.87;;
3491;SDS011;1760;52.480;13.422;2022-09-09T03:30:21;5.50;;;3.97;;
3491;SDS011;1760;52.480;13.422;2022-09-09T03:33:03;6.27;;;3.67;;
3491;SDS011;1760;52.480;13.422;2022-09-09T03:35:31;6.57;;;4.80;;
3491;SDS011;1760;52.480;13.422;2022-09-09T03:37:58;6.63;;;5.17;;
3491;SDS011;1760;52.480;13.422;2022-09-09T03:40:25;5.90;;;4.30;;
3491;SDS011;1760;52.480;13.422;2022-09-09T03:42:52;4.90;;;4.23;;
3491;SDS011;1760;52.480;13.422;2022-09-09T03:45:19;5.50;;;4.57;;
3491;SDS011;1760;52.480;13.422;2022-09-09T03:47:46;6.10;;;5.00;;
3491;SDS011;1760;52.480;13.422;2022-09-09T03:50:14;6.40;;;5.07;;
3491;SDS011;1760;52.480;13.422;2022-09-09T03:52:44;5.23;;;4.30;;
3491;SDS011;1760;52.480;13.422;2022-09-09T03:55:11;5.00;;;4.30;;
3491;SDS011;1760;52.480;13.422;2022-09-09T03:57:38;7.63;;;4.83;;
3491;SDS011;1760;52.480;13.422;2022-09-09T04:00:06;5.63;;;5.07;;
3491;SDS011;1760;52.480;13.422;2022-09-09T04:02:33;5.77;;;4.00;;
3491;SDS011;1760;52.480;13.422;2022-09-09T04:05:00;7.37;;;5.23;;
3491;SDS011;1760;52.480;13.422;2022-09-09T04:07:27;5.20;;;4.10;;
3491;SDS011;1760;52.480;13.422;2022-09-09T04:09:55;4.80;;;4.30;;
3491;SDS011;1760;52.480;13.422;2022-09-09T04:12:22;4.97;;;4.03;;
3491;SDS011;1760;52.480;13.422;2022-09-09T04:14:48;6.13;;;3.77;;
3491;SDS011;1760;52.480;13.422;2022-09-09T04:17:15;5.40;;;4.30;;
3491;SDS011;1760;52.480;13.422;2022-09-09T04:19:44;6.40;;;4.50;;
3491;SDS011;1760;52.480;13.422;2022-09-09T04:22:13;6.10;;;3.70;;
3491;SDS011;1760;52.480;13.422;2022-09-09T04:24:41;6.17;;;4.33;;
3491;SDS011;1760;52.480;13.422;2022-09-09T04:27:09;4.33;;;3.23;;
3491;SDS011;1760;52.480;13.422;2022-09-09T04:29:37;3.97;;;3.53;;
3491;SDS011;1760;52.480;13.422;2022-09-09T04:32:04;6.63;;;4.23;;
3491;SDS011;1760;52.480;13.422;2022-09-09T04:34:31;6.63;;;4.93;;
3491;SDS011;1760;52.480;13.422;2022-09-09T04:36:57;5.77;;;3.97;;
3491;SDS011;1760;52.480;13.422;2022-09-09T04:39:25;5.03;;;4.17;;
3491;SDS011;1760;52.480;13.422;2022-09-09T04:41:52;7.00;;;3.60;;
3491;SDS011;1760;52.480;13.422;2022-09-09T04:44:20;4.47;;;3.47;;
3491;SDS011;1760;52.480;13.422;2022-09-09T04:46:47;5.30;;;4.57;;
3491;SDS011;1760;52.480;13.422;2022-09-09T04:49:14;5.80;;;4.33;;
3491;SDS011;1760;52.480;13.422;2022-09-09T04:51:40;4.90;;;3.30;;
3491;SDS011;1760;52.480;13.422;2022-09-09T04:54:07;4.90;;;3.40;;
3491;SDS011;1760;52.480;13.422;2022-09-09T04:56:35;5.00;;;4.10;;
3491;SDS011;1760;52.480;13.422;2022-09-09T04:59:01;6.90;;;4.10;;
3491;SDS011;1760;52.480;13.422;2022-09-09T05:01:30;4.10;;;3.50;;
3491;SDS011;1760;52.480;13.422;2022-09-09T05:03:57;7.83;;;3.93;;
3491;SDS011;1760;52.480;13.422;2022-09-09T05:06:24;5.10;;;4.20;;
3491;SDS011;1760;52.480;13.422;2022-09-09T05:08:51;5.10;;;3.70;;
3491;SDS011;1760;52.480;13.422;2022-09-09T05:11:19;5.53;;;4.30;;
3491;SDS011;1760;52.480;13.422;2022-09-09T05:13:48;5.30;;;4.00;;
3491;SDS011;1760;52.480;13.422;2022-09-09T05:16:16;4.03;;;3.63;;
3491;SDS011;1760;52.480;13.422;2022-09-09T05:18:47;6.20;;;4.07;;
3491;SDS011;1760;52.480;13.422;2022-09-09T05:21:16;7.50;;;3.40;;
3491;SDS011;1760;52.480;13.422;2022-09-09T05:23:44;4.17;;;2.93;;
3491;SDS011;1760;52.480;13.422;2022-09-09T05:26:11;3.80;;;3.43;;
3491;SDS011;1760;52.480;13.422;2022-09-09T05:28:40;4.60;;;3.83;;
3491;SDS011;1760;52.480;13.422;2022-09-09T05:31:08;4.10;;;3.70;;
3491;SDS011;1760;52.480;13.422;2022-09-09T05:33:36;5.40;;;3.87;;
3491;SDS011;1760;52.480;13.422;2022-09-09T05:36:07;6.03;;;3.80;;
3491;SDS011;1760;52.480;13.422;2022-09-09T05:38:35;4.70;;;3.43;;
3491;SDS011;1760;52.480;13.422;2022-09-09T05:41:03;4.10;;;3.70;;
3491;SDS011;1760;52.480;13.422;2022-09-09T05:43:30;6.63;;;3.93;;
3491;SDS011;1760;52.480;13.422;2022-09-09T05:46:00;4.53;;;3.40;;
3491;SDS011;1760;52.480;13.422;2022-09-09T05:48:29;6.53;;;3.60;;
3491;SDS011;1760;52.480;13.422;2022-09-09T05:50:57;4.53;;;3.60;;
3491;SDS011;1760;52.480;13.422;2022-09-09T05:53:25;3.83;;;3.17;;
3491;SDS011;1760;52.480;13.422;2022-09-09T05:55:59;11.20;;;3.50;;
3491;SDS011;1760;52.480;13.422;2022-09-09T05:58:28;5.33;;;3.80;;
3491;SDS011;1760;52.480;13.422;2022-09-09T06:01:00;4.80;;;3.10;;
3491;SDS011;1760;52.480;13.422;2022-09-09T06:03:27;4.23;;;2.83;;
3491;SDS011;1760;52.480;13.422;2022-09-09T06:05:57;2.70;;;2.27;;
3491;SDS011;1760;52.480;13.422;2022-09-09T06:08:26;6.13;;;3.63;;
3491;SDS011;1760;52.480;13.422;2022-09-09T06:10:53;3.00;;;2.57;;
3491;SDS011;1760;52.480;13.422;2022-09-09T06:13:27;4.40;;;3.43;;
3491;SDS011;1760;52.480;13.422;2022-09-09T06:15:54;3.73;;;2.90;;
3491;SDS011;1760;52.480;13.422;2022-09-09T06:18:21;3.10;;;2.70;;
3491;SDS011;1760;52.480;13.422;2022-09-09T06:20:55;5.50;;;3.40;;
3491;SDS011;1760;52.480;13.422;2022-09-09T06:23:22;3.67;;;3.37;;
3491;SDS011;1760;52.480;13.422;2022-09-09T06:25:51;3.47;;;2.90;;
3491;SDS011;1760;52.480;13.422;2022-09-09T06:28:26;5.63;;;2.70;;
3491;SDS011;1760;52.480;13.422;2022-09-09T06:30:56;7.83;;;2.57;;
3491;SDS011;1760;52.480;13.422;2022-09-09T06:33:24;3.30;;;2.60;;
3491;SDS011;1760;52.480;13.422;2022-09-09T06:35:51;3.43;;;2.60;;
3491;SDS011;1760;52.480;13.422;2022-09-09T06:38:18;2.83;;;2.20;;
3491;SDS011;1760;52.480;13.422;2022-09-09T06:40:51;5.40;;;2.70;;
3491;SDS011;1760;52.480;13.422;2022-09-09T06:43:19;11.73;;;2.77;;
3491;SDS011;1760;52.480;13.422;2022-09-09T06:45:52;3.17;;;2.63;;
3491;SDS011;1760;52.480;13.422;2022-09-09T06:48:19;2.20;;;2.00;;
3491;SDS011;1760;52.480;13.422;2022-09-09T06:50:46;5.30;;;2.57;;
3491;SDS011;1760;52.480;13.422;2022-09-09T06:53:15;3.10;;;2.80;;
3491;SDS011;1760;52.480;13.422;2022-09-09T06:55:44;5.17;;;2.33;;
3491;SDS011;1760;52.480;13.422;2022-09-09T06:58:12;2.87;;;2.27;;
3491;SDS011;1760;52.480;13.422;2022-09-09T07:00:39;2.83;;;2.53;;
3491;SDS011;1760;52.480;13.422;2022-09-09T07:03:06;2.33;;;2.13;;
3491;SDS011;1760;52.480;13.422;2022-09-09T07:05:33;4.53;;;2.80;;
3491;SDS011;1760;52.480;13.422;2022-09-09T07:08:00;3.90;;;2.60;;
3491;SDS011;1760;52.480;13.422;2022-09-09T07:10:27;2.63;;;2.43;;
3491;SDS011;1760;52.480;13.422;2022-09-09T07:12:54;5.47;;;2.70;;
3491;SDS011;1760;52.480;13.422;2022-09-09T07:15:24;3.93;;;2.30;;
3491;SDS011;1760;52.480;13.422;2022-09-09T07:17:51;3.30;;;2.63;;
3491;SDS011;1760;52.480;13.422;2022-09-09T07:20:18;3.90;;;2.37;;
3491;SDS011;1760;52.480;13.422;2022-09-09T07:22:45;5.30;;;2.97;;
3491;SDS011;1760;52.480;13.422;2022-09-09T07:25:12;2.30;;;2.10;;
3491;SDS011;1760;52.480;13.422;2022-09-09T07:27:42;2.73;;;2.30;;
3491;SDS011;1760;52.480;13.422;2022-09-09T07:30:09;2.10;;;1.87;;
3491;SDS011;1760;52.480;13.422;2022-09-09T07:32:38;4.03;;;2.50;;
3491;SDS011;1760;52.480;13.422;2022-09-09T07:35:05;6.80;;;2.57;;
3491;SDS011;1760;52.480;13.422;2022-09-09T07:37:35;2.80;;;2.57;;
3491;SDS011;1760;52.480;13.422;2022-09-09T07:40:02;3.50;;;2.07;;
3491;SDS011;1760;52.480;13.422;2022-09-09T07:42:30;2.83;;;1.70;;
3491;SDS011;1760;52.480;13.422;2022-09-09T07:44:57;5.83;;;2.30;;
3491;SDS011;1760;52.480;13.422;2022-09-09T07:47:24;3.23;;;2.53;;
3491;SDS011;1760;52.480;13.422;2022-09-09T07:49:52;2.33;;;2.10;;
3491;SDS011;1760;52.480;13.422;2022-09-09T07:52:19;3.50;;;2.27;;
3491;SDS011;1760;52.480;13.422;2022-09-09T07:54:46;3.83;;;2.17;;
3491;SDS011;1760;52.480;13.422;2022-09-09T07:57:13;4.00;;;2.33;;
3491;SDS011;1760;52.480;13.422;2022-09-09T07:59:40;2.07;;;1.87;;
3491;SDS011;1760;52.480;13.422;2022-09-09T08:02:08;2.37;;;2.13;;
3491;SDS011;1760;52.480;13.422;2022-09-09T08:04:35;2.27;;;1.97;;
3491;SDS011;1760;52.480;13.422;2022-09-09T08:07:03;3.17;;;2.23;;
3491;SDS011;1760;52.480;13.422;2022-09-09T08:09:30;3.07;;;1.70;;
3491;SDS011;1760;52.480;13.422;2022-09-09T08:11:58;4.03;;;2.00;;
3491;SDS011;1760;52.480;13.422;2022-09-09T08:14:26;2.70;;;2.40;;
3491;SDS011;1760;52.480;13.422;2022-09-09T08:16:53;4.40;;;3.90;;
3491;SDS011;1760;52.480;13.422;2022-09-09T08:19:20;2.00;;;1.83;;
3491;SDS011;1760;52.480;13.422;2022-09-09T08:21:46;2.33;;;2.13;;
3491;SDS011;1760;52.480;13.422;2022-09-09T08:24:15;3.37;;;2.20;;
3491;SDS011;1760;52.480;13.422;2022-09-09T08:26:46;2.63;;;1.80;;
3491;SDS011;1760;52.480;13.422;2022-09-09T08:29:14;2.13;;;1.87;;
3491;SDS011;1760;52.480;13.422;2022-09-09T08:31:42;3.10;;;2.17;;
3491;SDS011;1760;52.480;13.422;2022-09-09T08:34:10;2.03;;;1.83;;
3491;SDS011;1760;52.480;13.422;2022-09-09T08:36:38;3.53;;;2.10;;
3491;SDS011;1760;52.480;13.422;2022-09-09T08:39:07;4.20;;;2.00;;
3491;SDS011;1760;52.480;13.422;2022-09-09T08:44:28;4.63;;;2.00;;
3491;SDS011;1760;52.480;13.422;2022-09-09T08:47:05;2.40;;;1.87;;
3491;SDS011;1760;52.480;13.422;2022-09-09T08:49:46;4.40;;;2.00;;
3491;SDS011;1760;52.480;13.422;2022-09-09T08:52:31;2.33;;;1.90;;
3491;SDS011;1760;52.480;13.422;2022-09-09T08:55:11;2.43;;;2.23;;
3491;SDS011;1760;52.480;13.422;2022-09-09T08:57:47;2.40;;;1.90;;
3491;SDS011;1760;52.480;13.422;2022-09-09T09:00:17;3.67;;;1.87;;
3491;SDS011;1760;52.480;13.422;2022-09-09T09:02:46;3.07;;;1.87;;
3491;SDS011;1760;52.480;13.422;2022-09-09T09:05:23;3.73;;;1.73;;
3491;SDS011;1760;52.480;13.422;2022-09-09T09:07:59;3.73;;;1.97;;
3491;SDS011;1760;52.480;13.422;2022-09-09T09:10:40;4.80;;;1.87;;
3491;SDS011;1760;52.480;13.422;2022-09-09T09:13:17;3.30;;;1.80;;
3491;SDS011;1760;52.480;13.422;2022-09-09T09:15:47;2.17;;;1.70;;
3491;SDS011;1760;52.480;13.422;2022-09-09T09:18:18;3.80;;;1.83;;
3491;SDS011;1760;52.480;13.422;2022-09-09T09:20:50;1.60;;;1.40;;
3491;SDS011;1760;52.480;13.422;2022-09-09T09:23:23;2.03;;;1.33;;
3491;SDS011;1760;52.480;13.422;2022-09-09T09:26:00;5.77;;;1.87;;
3491;SDS011;1760;52.480;13.422;2022-09-09T09:28:29;5.93;;;1.80;;
3491;SDS011;1760;52.480;13.422;2022-09-09T09:30:59;2.00;;;1.70;;
3491;SDS011;1760;52.480;13.422;2022-09-09T09:33:30;2.60;;;1.70;;
3491;SDS011;1760;52.480;13.422;2022-09-09T09:36:05;4.00;;;2.00;;
3491;SDS011;1760;52.480;13.422;2022-09-09T09:38:33;3.37;;;1.53;;
3491;SDS011;1760;52.480;13.422;2022-09-09T09:41:01;3.80;;;1.70;;
3491;SDS011;1760;52.480;13.422;2022-09-09T09:43:30;3.10;;;1.60;;
3491;SDS011;1760;52.480;13.422;2022-09-09T09:45:58;4.33;;;1.53;;
3491;SDS011;1760;52.480;13.422;2022-09-09T09:48:26;2.20;;;1.60;;
3491;SDS011;1760;52.480;13.422;2022-09-09T09:50:54;1.87;;;1.67;;
3491;SDS011;1760;52.480;13.422;2022-09-09T09:53:24;4.47;;;1.80;;
3491;SDS011;1760;52.480;13.422;2022-09-09T09:55:56;2.77;;;1.70;;
3491;SDS011;1760;52.480;13.422;2022-09-09T09:58:38;2.07;;;1.60;;
3491;SDS011;1760;52.480;13.422;2022-09-09T10:01:18;2.80;;;1.40;;
3491;SDS011;1760;52.480;13.422;2022-09-09T10:03:50;7.93;;;2.20;;
3491;SDS011;1760;52.480;13.422;2022-09-09T10:06:28;3.27;;;1.60;;
3491;SDS011;1760;52.480;13.422;2022-09-09T10:08:55;4.00;;;1.80;;
3491;SDS011;1760;52.480;13.422;2022-09-09T10:11:25;2.20;;;1.63;;
3491;SDS011;1760;52.480;13.422;2022-09-09T10:14:08;3.30;;;1.83;;
3491;SDS011;1760;52.480;13.422;2022-09-09T10:16:47;1.83;;;1.60;;
3491;SDS011;1760;52.480;13.422;2022-09-09T10:19:32;3.90;;;2.40;;
3491;SDS011;1760;52.480;13.422;2022-09-09T10:22:05;5.33;;;1.70;;
3491;SDS011;1760;52.480;13.422;2022-09-09T10:24:48;3.47;;;1.87;;
3491;SDS011;1760;52.480;13.422;2022-09-09T10:27:56;2.30;;;1.60;;
3491;SDS011;1760;52.480;13.422;2022-09-09T10:31:02;3.30;;;1.87;;
3491;SDS011;1760;52.480;13.422;2022-09-09T10:33:42;5.57;;;1.83;;
3491;SDS011;1760;52.480;13.422;2022-09-09T10:36:17;2.10;;;1.60;;
3491;SDS011;1760;52.480;13.422;2022-09-09T10:38:46;5.80;;;1.90;;
3491;SDS011;1760;52.480;13.422;2022-09-09T10:41:19;2.17;;;1.70;;
3491;SDS011;1760;52.480;13.422;2022-09-09T10:43:54;2.10;;;1.83;;
3491;SDS011;1760;52.480;13.422;2022-09-09T10:46:32;3.60;;;1.90;;
3491;SDS011;1760;52.480;13.422;2022-09-09T10:49:11;2.50;;;1.80;;
3491;SDS011;1760;52.480;13.422;2022-09-09T10:51:49;9.47;;;2.33;;
3491;SDS011;1760;52.480;13.422;2022-09-09T10:54:26;1.63;;;1.30;;
3491;SDS011;1760;52.480;13.422;2022-09-09T10:57:02;6.27;;;1.53;;
3491;SDS011;1760;52.480;13.422;2022-09-09T10:59:38;2.60;;;1.40;;
3491;SDS011;1760;52.480;13.422;2022-09-09T11:02:15;4.17;;;1.60;;
3491;SDS011;1760;52.480;13.422;2022-09-09T11:04:48;1.90;;;1.67;;
3491;SDS011;1760;52.480;13.422;2022-09-09T11:07:22;2.50;;;1.93;;
3491;SDS011;1760;52.480;13.422;2022-09-09T11:09:56;3.20;;;1.70;;
3491;SDS011;1760;52.480;13.422;2022-09-09T11:12:26;2.70;;;1.30;;
3491;SDS011;1760;52.480;13.422;2022-09-09T11:14:55;3.00;;;1.60;;
3491;SDS011;1760;52.480;13.422;2022-09-09T11:17:30;2.07;;;1.50;;
3491;SDS011;1760;52.480;13.422;2022-09-09T11:20:04;5.93;;;3.53;;
3491;SDS011;1760;52.480;13.422;2022-09-09T11:22:33;5.20;;;1.93;;
3491;SDS011;1760;52.480;13.422;2022-09-09T11:25:04;2.20;;;1.47;;
3491;SDS011;1760;52.480;13.422;2022-09-09T11:27:36;2.83;;;1.57;;
3491;SDS011;1760;52.480;13.422;2022-09-09T11:30:34;3.90;;;1.33;;
3491;SDS011;1760;52.480;13.422;2022-09-09T11:33:27;4.47;;;1.23;;
3491;SDS011;1760;52.480;13.422;2022-09-09T11:36:35;7.57;;;1.53;;
3491;SDS011;1760;52.480;13.422;2022-09-09T11:39:19;3.20;;;1.57;;
3491;SDS011;1760;52.480;13.422;2022-09-09T11:44:43;1.60;;;1.10;;
3491;SDS011;1760;52.480;13.422;2022-09-09T11:47:15;3.43;;;2.37;;
3491;SDS011;1760;52.480;13.422;2022-09-09T11:49:48;2.27;;;1.40;;
3491;SDS011;1760;52.480;13.422;2022-09-09T11:52:20;2.00;;;1.50;;
3491;SDS011;1760;52.480;13.422;2022-09-09T11:54:50;2.60;;;1.43;;
3491;SDS011;1760;52.480;13.422;2022-09-09T11:57:23;2.77;;;1.40;;
3491;SDS011;1760;52.480;13.422;2022-09-09T11:59:53;2.63;;;1.43;;
3491;SDS011;1760;52.480;13.422;2022-09-09T12:02:47;1.73;;;1.30;;
3491;SDS011;1760;52.480;13.422;2022-09-09T12:05:15;2.50;;;1.43;;
3491;SDS011;1760;52.480;13.422;2022-09-09T12:07:46;3.07;;;1.70;;
3491;SDS011;1760;52.480;13.422;2022-09-09T12:10:20;1.70;;;1.40;;
3491;SDS011;1760;52.480;13.422;2022-09-09T12:12:50;2.53;;;1.13;;
3491;SDS011;1760;52.480;13.422;2022-09-09T12:15:18;4.87;;;2.10;;
3491;SDS011;1760;52.480;13.422;2022-09-09T12:17:51;1.83;;;1.13;;
3491;SDS011;1760;52.480;13.422;2022-09-09T12:20:21;2.57;;;1.50;;
3491;SDS011;1760;52.480;13.422;2022-09-09T12:23:02;2.10;;;1.40;;
3491;SDS011;1760;52.480;13.422;2022-09-09T12:26:09;2.93;;;1.10;;
3491;SDS011;1760;52.480;13.422;2022-09-09T12:28:55;1.47;;;1.20;;
3491;SDS011;1760;52.480;13.422;2022-09-09T12:31:39;2.20;;;1.07;;
3491;SDS011;1760;52.480;13.422;2022-09-09T12:34:21;1.80;;;1.60;;
3491;SDS011;1760;52.480;13.422;2022-09-09T12:36:58;3.10;;;1.40;;
3491;SDS011;1760;52.480;13.422;2022-09-09T12:39:32;1.30;;;1.20;;
3491;SDS011;1760;52.480;13.422;2022-09-09T12:42:03;2.13;;;1.40;;
3491;SDS011;1760;52.480;13.422;2022-09-09T12:44:30;5.47;;;2.40;;
3491;SDS011;1760;52.480;13.422;2022-09-09T12:46:59;2.90;;;2.00;;
3491;SDS011;1760;52.480;13.422;2022-09-09T12:49:29;2.03;;;1.83;;
3491;SDS011;1760;52.480;13.422;2022-09-09T12:52:02;2.60;;;1.23;;
3491;SDS011;1760;52.480;13.422;2022-09-09T12:54:31;2.20;;;1.50;;
3491;SDS011;1760;52.480;13.422;2022-09-09T12:56:58;2.07;;;1.40;;
3491;SDS011;1760;52.480;13.422;2022-09-09T12:59:26;2.60;;;1.13;;
3491;SDS011;1760;52.480;13.422;2022-09-09T13:02:00;5.13;;;2.13;;
3491;SDS011;1760;52.480;13.422;2022-09-09T13:04:27;2.13;;;1.23;;
3491;SDS011;1760;52.480;13.422;2022-09-09T13:09:39;3.17;;;1.37;;
3491;SDS011;1760;52.480;13.422;2022-09-09T13:12:06;2.97;;;1.20;;
3491;SDS011;1760;52.480;13.422;2022-09-09T13:14:39;1.60;;;1.10;;
3491;SDS011;1760;52.480;13.422;2022-09-09T13:17:17;2.97;;;1.40;;
3491;SDS011;1760;52.480;13.422;2022-09-09T13:19:46;1.97;;;1.20;;
3491;SDS011;1760;52.480;13.422;2022-09-09T13:22:20;2.30;;;1.63;;
3491;SDS011;1760;52.480;13.422;2022-09-09T13:24:58;2.70;;;1.50;;
3491;SDS011;1760;52.480;13.422;2022-09-09T13:27:28;4.73;;;2.03;;
3491;SDS011;1760;52.480;13.422;2022-09-09T13:29:57;7.80;;;2.00;;
3491;SDS011;1760;52.480;13.422;2022-09-09T13:32:24;3.60;;;1.50;;
3491;SDS011;1760;52.480;13.422;2022-09-09T13:34:53;2.80;;;1.67;;
3491;SDS011;1760;52.480;13.422;2022-09-09T13:37:24;1.87;;;1.20;;
3491;SDS011;1760;52.480;13.422;2022-09-09T13:39:55;2.23;;;1.33;;
3491;SDS011;1760;52.480;13.422;2022-09-09T13:42:24;2.33;;;1.70;;
3491;SDS011;1760;52.480;13.422;2022-09-09T13:44:52;2.43;;;1.27;;
3491;SDS011;1760;52.480;13.422;2022-09-09T13:47:21;3.30;;;1.27;;
3491;SDS011;1760;52.480;13.422;2022-09-09T13:49:55;1.90;;;1.10;;
3491;SDS011;1760;52.480;13.422;2022-09-09T13:52:21;1.50;;;1.30;;
3491;SDS011;1760;52.480;13.422;2022-09-09T13:54:51;2.73;;;1.27;;
3491;SDS011;1760;52.480;13.422;2022-09-09T13:57:20;3.33;;;1.60;;
3491;SDS011;1760;52.480;13.422;2022-09-09T13:59:50;1.87;;;1.23;;
3491;SDS011;1760;52.480;13.422;2022-09-09T14:02:18;5.83;;;1.67;;
3491;SDS011;1760;52.480;13.422;2022-09-09T14:04:46;2.30;;;1.20;;
3491;SDS011;1760;52.480;13.422;2022-09-09T14:07:17;1.97;;;1.17;;
3491;SDS011;1760;52.480;13.422;2022-09-09T14:09:57;3.67;;;1.20;;
3491;SDS011;1760;52.480;13.422;2022-09-09T14:12:25;7.80;;;1.60;;
3491;SDS011;1760;52.480;13.422;2022-09-09T14:14:52;3.77;;;2.33;;
3491;SDS011;1760;52.480;13.422;2022-09-09T14:17:18;3.27;;;2.13;;
3491;SDS011;1760;52.480;13.422;2022-09-09T14:19:50;3.47;;;2.00;;
3491;SDS011;1760;52.480;13.422;2022-09-09T14:22:16;2.23;;;1.47;;
3491;SDS011;1760;52.480;13.422;2022-09-09T14:24:43;2.07;;;1.27;;
3491;SDS011;1760;52.480;13.422;2022-09-09T14:27:11;5.63;;;1.10;;
3491;SDS011;1760;52.480;13.422;2022-09-09T14:29:38;7.43;;;1.53;;
3491;SDS011;1760;52.480;13.422;2022-09-09T14:32:05;1.77;;;1.23;;
3491;SDS011;1760;52.480;13.422;2022-09-09T14:34:32;1.70;;;1.30;;
3491;SDS011;1760;52.480;13.422;2022-09-09T14:37:00;3.37;;;1.03;;
3491;SDS011;1760;52.480;13.422;2022-09-09T14:39:27;1.50;;;1.10;;
3491;SDS011;1760;52.480;13.422;2022-09-09T14:41:54;2.03;;;1.10;;
3491;SDS011;1760;52.480;13.422;2022-09-09T14:44:22;2.60;;;1.10;;
3491;SDS011;1760;52.480;13.422;2022-09-09T14:46:49;2.10;;;1.57;;
3491;SDS011;1760;52.480;13.422;2022-09-09T14:49:16;2.37;;;1.47;;
3491;SDS011;1760;52.480;13.422;2022-09-09T14:51:43;3.30;;;1.87;;
3491;SDS011;1760;52.480;13.422;2022-09-09T14:54:10;2.63;;;1.50;;
3491;SDS011;1760;52.480;13.422;2022-09-09T14:56:36;2.20;;;1.57;;
3491;SDS011;1760;52.480;13.422;2022-09-09T14:59:04;2.50;;;1.67;;
3491;SDS011;1760;52.480;13.422;2022-09-09T15:01:32;1.50;;;1.40;;
3491;SDS011;1760;52.480;13.422;2022-09-09T15:03:59;3.47;;;2.27;;
3491;SDS011;1760;52.480;13.422;2022-09-09T15:06:29;3.63;;;1.30;;
3491;SDS011;1760;52.480;13.422;2022-09-09T15:08:58;5.20;;;2.13;;
3491;SDS011;1760;52.480;13.422;2022-09-09T15:11:34;6.13;;;1.37;;
3491;SDS011;1760;52.480;13.422;2022-09-09T15:14:03;4.03;;;1.60;;
3491;SDS011;1760;52.480;13.422;2022-09-09T15:16:32;2.70;;;1.43;;
3491;SDS011;1760;52.480;13.422;2022-09-09T15:18:59;1.40;;;1.30;;
3491;SDS011;1760;52.480;13.422;2022-09-09T15:21:28;1.93;;;1.37;;
3491;SDS011;1760;52.480;13.422;2022-09-09T15:23:56;1.97;;;1.30;;
3491;SDS011;1760;52.480;13.422;2022-09-09T15:26:24;1.10;;;0.90;;
3491;SDS011;1760;52.480;13.422;2022-09-09T15:28:51;1.47;;;0.90;;
3491;SDS011;1760;52.480;13.422;2022-09-09T15:31:19;3.70;;;1.30;;
3491;SDS011;1760;52.480;13.422;2022-09-09T15:33:49;2.17;;;1.37;;
3491;SDS011;1760;52.480;13.422;2022-09-09T15:36:17;1.97;;;1.10;;